Time;durP1;ratioP1;P1;durP2;ratioP2;P2;SDS_P1;SDS_P2;PMS_P1;PMS_P2;Temp;Humidity;BMP_temperature;BMP_pressure;BME280_temperature;BME280_humidity;BME280_pressure;Samples;Min_cycle;Max_cycle;Signal;HPM_P1;HPM_P2
2023/03/03 06:00:46;;;;;;;33.13;28.07;;;5.80;97.20;;;;;;1719936;28;20193;-65
2023/03/03 06:01:36;;;;;;;34.38;30.17;;;5.80;97.20;;;;;;1719848;28;20348;-65
2023/03/03 06:02:28;;;;;;;37.13;30.07;;;5.80;97.20;;;;;;1719872;28;20204;-65
2023/03/03 06:03:19;;;;;;;32.78;29.20;;;5.80;97.20;;;;;;1719567;28;20219;-65
2023/03/03 06:04:10;;;;;;;34.50;28.73;;;5.80;97.20;;;;;;1719775;28;20215;-65
2023/03/03 06:05:01;;;;;;;33.47;29.52;;;5.80;97.20;;;;;;1719447;28;20212;-65
2023/03/03 06:05:53;;;;;;;34.60;29.40;;;5.80;97.20;;;;;;1720246;28;20223;-65
2023/03/03 06:06:44;;;;;;;41.28;32.20;;;5.80;97.20;;;;;;1720279;28;20221;-65
2023/03/03 06:07:35;;;;;;;34.97;29.93;;;5.80;97.20;;;;;;1719926;28;20211;-65
2023/03/03 06:08:26;;;;;;;39.22;31.20;;;5.80;97.20;;;;;;1720247;28;20201;-65
2023/03/03 06:09:19;;;;;;;35.30;30.73;;;5.80;97.20;;;;;;1720357;28;20201;-65
2023/03/03 06:10:10;;;;;;;34.13;29.52;;;5.80;97.20;;;;;;1720330;28;20451;-65
2023/03/03 06:11:02;;;;;;;37.63;30.50;;;5.80;97.20;;;;;;1720497;28;20209;-65
2023/03/03 06:11:53;;;;;;;38.53;31.08;;;5.80;97.20;;;;;;1720284;28;20209;-65
2023/03/03 06:12:44;;;;;;;36.20;29.30;;;5.80;97.20;;;;;;1720422;28;20204;-65
2023/03/03 06:13:35;;;;;;;36.13;30.60;;;5.80;97.20;;;;;;1720304;28;20705;-65
2023/03/03 06:14:27;;;;;;;36.87;30.10;;;5.80;97.20;;;;;;1720447;28;20682;-65
2023/03/03 06:15:18;;;;;;;39.40;30.30;;;5.80;97.20;;;;;;1720366;28;20328;-66
2023/03/03 06:16:11;;;;;;;39.03;31.08;;;5.80;97.20;;;;;;1720546;28;20200;-66
2023/03/03 06:17:02;;;;;;;38.67;31.67;;;5.80;97.20;;;;;;1720422;28;20209;-65
2023/03/03 06:17:53;;;;;;;38.13;30.57;;;5.80;97.20;;;;;;1719939;28;20200;-65
2023/03/03 06:18:44;;;;;;;39.70;30.85;;;5.80;97.20;;;;;;1722583;28;20447;-65
2023/03/03 06:19:36;;;;;;;37.17;31.50;;;5.80;97.20;;;;;;1727123;28;20207;-65
2023/03/03 06:20:27;;;;;;;38.30;30.85;;;5.90;97.20;;;;;;1726883;28;20212;-65
2023/03/03 06:21:19;;;;;;;38.00;31.33;;;5.90;97.20;;;;;;1726959;28;20204;-66
2023/03/03 06:22:10;;;;;;;38.33;32.40;;;5.90;97.20;;;;;;1727094;28;20212;-65
2023/03/03 06:23:01;;;;;;;35.37;30.73;;;5.90;97.20;;;;;;1726691;28;20247;-65
2023/03/03 06:23:52;;;;;;;37.45;31.25;;;5.90;97.20;;;;;;1725076;28;20578;-65
2023/03/03 06:24:44;;;;;;;40.47;33.53;;;5.80;97.20;;;;;;1720291;28;20716;-65
2023/03/03 06:25:35;;;;;;;39.25;33.05;;;5.80;97.20;;;;;;1720238;28;20243;-66
2023/03/03 06:26:26;;;;;;;38.60;32.10;;;5.80;97.20;;;;;;1720292;28;20201;-65
2023/03/03 06:27:17;;;;;;;43.25;33.88;;;5.90;97.20;;;;;;1721187;28;20205;-66
2023/03/03 06:28:09;;;;;;;40.23;32.00;;;5.90;97.20;;;;;;1721107;28;20284;-65
2023/03/03 06:29:00;;;;;;;43.25;34.83;;;5.90;97.20;;;;;;1717549;28;20197;-66
2023/03/03 06:29:52;;;;;;;38.30;32.15;;;5.90;97.20;;;;;;1720324;28;20200;-66
2023/03/03 06:30:43;;;;;;;39.33;32.53;;;5.90;97.20;;;;;;1720224;28;20287;-66
2023/03/03 06:31:36;;;;;;;40.03;32.60;;;5.90;97.20;;;;;;1721102;28;20197;-65
2023/03/03 06:32:26;;;;;;;39.85;31.30;;;5.90;97.20;;;;;;1721225;28;20205;-65
2023/03/03 06:33:18;;;;;;;42.40;32.07;;;5.90;97.20;;;;;;1721487;28;20201;-65
2023/03/03 06:34:09;;;;;;;40.00;32.80;;;5.90;97.20;;;;;;1721972;28;20232;-65
2023/03/03 06:35:01;;;;;;;39.80;31.93;;;5.90;97.20;;;;;;1721431;28;20205;-65
2023/03/03 06:35:53;;;;;;;38.35;32.63;;;5.90;97.20;;;;;;1721325;28;20443;-65
2023/03/03 06:36:44;;;;;;;41.25;31.65;;;5.90;97.20;;;;;;1721642;28;20233;-65
2023/03/03 06:37:35;;;;;;;38.65;31.80;;;6.00;97.20;;;;;;1720963;28;20697;-65
2023/03/03 06:38:27;;;;;;;38.93;32.50;;;6.00;97.20;;;;;;1721205;28;20590;-65
2023/03/03 06:39:18;;;;;;;41.75;34.50;;;6.00;97.20;;;;;;1720957;28;20201;-65
2023/03/03 06:40:14;;;;;;;39.30;32.10;;;6.00;97.20;;;;;;1721950;28;20197;-65
2023/03/03 06:41:07;;;;;;;40.47;32.88;;;6.00;97.20;;;;;;1721923;28;20452;-65
2023/03/03 06:41:58;;;;;;;40.28;33.33;;;6.00;97.20;;;;;;1721914;28;20201;-65
2023/03/03 06:42:50;;;;;;;43.20;34.17;;;6.00;97.20;;;;;;1721826;28;20240;-65
2023/03/03 06:43:41;;;;;;;43.20;34.08;;;6.00;97.20;;;;;;1721648;28;20205;-67
2023/03/03 06:44:33;;;;;;;42.35;34.20;;;6.00;97.20;;;;;;1721301;28;20671;-65
2023/03/03 06:45:24;;;;;;;44.15;33.53;;;6.00;97.20;;;;;;1721805;28;20609;-65
2023/03/03 06:46:16;;;;;;;44.00;34.77;;;6.00;97.20;;;;;;1721901;28;20258;-65
2023/03/03 06:47:08;;;;;;;42.80;32.08;;;6.00;97.20;;;;;;1721569;28;20229;-66
2023/03/03 06:48:00;;;;;;;41.90;32.78;;;6.00;97.20;;;;;;1721874;28;20237;-65
2023/03/03 06:48:51;;;;;;;39.30;33.03;;;6.10;97.20;;;;;;1721710;28;20232;-65
2023/03/03 06:49:43;;;;;;;41.63;32.80;;;6.10;97.20;;;;;;1721791;28;20205;-66
2023/03/03 06:50:34;;;;;;;44.55;32.95;;;6.10;97.20;;;;;;1721792;28;20261;-65
2023/03/03 06:51:30;;;;;;;41.70;32.93;;;6.10;97.20;;;;;;1721795;28;20205;-65
2023/03/03 06:52:25;;;;;;;40.38;33.83;;;6.10;97.20;;;;;;1721731;28;20452;-65
2023/03/03 06:53:17;;;;;;;38.58;32.92;;;6.10;97.20;;;;;;1721752;28;20216;-66
2023/03/03 06:54:12;;;;;;;38.15;32.67;;;6.10;97.20;;;;;;1721822;28;20659;-65
2023/03/03 06:55:11;;;;;;;43.60;34.83;;;6.10;97.20;;;;;;1721636;28;20577;-65
2023/03/03 06:56:08;;;;;;;42.67;32.22;;;6.10;97.20;;;;;;1721814;28;20237;-65
2023/03/03 06:57:15;;;;;;;40.47;32.75;;;6.10;97.20;;;;;;1721831;28;20205;-65
2023/03/03 06:58:12;;;;;;;37.28;31.02;;;6.20;97.20;;;;;;1721799;28;20204;-65
2023/03/03 06:59:11;;;;;;;44.33;33.55;;;6.20;97.20;;;;;;1721776;28;20667;-65
2023/03/03 07:00:15;;;;;;;42.58;32.85;;;6.20;97.20;;;;;;1721725;28;20261;-65
2023/03/03 07:01:14;;;;;;;44.00;33.40;;;6.20;97.20;;;;;;1721764;28;20213;-65
2023/03/03 07:02:16;;;;;;;41.05;32.78;;;6.20;97.20;;;;;;1721748;28;20213;-66
2023/03/03 07:03:13;;;;;;;41.45;31.83;;;6.30;97.20;;;;;;1721729;28;20723;-65
2023/03/03 07:04:13;;;;;;;40.78;32.05;;;6.30;97.20;;;;;;1721731;28;20205;-65
2023/03/03 07:05:09;;;;;;;42.80;32.53;;;6.30;97.20;;;;;;1721491;28;20205;-65
2023/03/03 07:06:02;;;;;;;41.42;33.15;;;6.30;97.20;;;;;;1721747;28;20197;-65
2023/03/03 07:06:53;;;;;;;39.92;32.42;;;6.30;97.20;;;;;;1721662;28;20205;-66
2023/03/03 07:07:45;;;;;;;40.08;31.20;;;6.40;97.20;;;;;;1721433;28;20232;-66
2023/03/03 07:08:38;;;;;;;41.40;31.45;;;6.40;97.20;;;;;;1721601;28;20213;-66
2023/03/03 07:09:30;;;;;;;38.58;31.67;;;6.40;97.20;;;;;;1721712;28;20663;-65
2023/03/03 07:10:23;;;;;;;40.25;32.28;;;6.40;97.20;;;;;;1721566;28;20610;-65
2023/03/03 07:11:18;;;;;;;38.15;31.30;;;6.40;97.20;;;;;;1721731;28;20211;-65
2023/03/03 07:12:12;;;;;;;40.15;32.20;;;6.40;97.20;;;;;;1721660;28;20253;-65
2023/03/03 07:13:21;;;;;;;42.47;32.50;;;6.50;97.20;;;;;;1721606;28;20289;-65
2023/03/03 07:14:15;;;;;;;38.80;33.05;;;6.50;97.20;;;;;;1721693;28;20237;-65
2023/03/03 07:15:15;;;;;;;39.83;32.60;;;6.50;97.20;;;;;;1721466;28;20201;-65
2023/03/03 07:16:11;;;;;;;38.97;30.52;;;6.50;97.20;;;;;;1721763;28;20216;-65
2023/03/03 07:17:10;;;;;;;36.65;31.17;;;6.50;97.20;;;;;;1721672;28;20213;-65
2023/03/03 07:18:04;;;;;;;37.25;30.80;;;6.50;97.20;;;;;;1721748;28;20217;-65
2023/03/03 07:19:00;;;;;;;40.55;31.70;;;6.50;97.20;;;;;;1721591;28;20243;-65
2023/03/03 07:19:51;;;;;;;36.97;31.15;;;6.50;97.20;;;;;;1721665;28;20205;-65
2023/03/03 07:20:43;;;;;;;42.20;30.67;;;6.50;97.20;;;;;;1721505;28;20214;-65
2023/03/03 07:21:35;;;;;;;38.53;30.80;;;6.50;97.20;;;;;;1721597;28;20205;-65
2023/03/03 07:22:29;;;;;;;38.50;32.08;;;6.50;97.20;;;;;;1721673;28;20577;-65
2023/03/03 07:23:23;;;;;;;40.70;31.77;;;6.50;97.20;;;;;;1721547;28;20213;-65
2023/03/03 07:24:27;;;;;;;40.83;32.83;;;6.50;97.20;;;;;;1721623;28;20216;-65
2023/03/03 07:25:25;;;;;;;38.92;33.08;;;6.50;97.20;;;;;;1721345;28;20202;-66
2023/03/03 07:26:19;;;;;;;40.63;33.13;;;6.50;97.20;;;;;;1721756;28;20198;-65
2023/03/03 07:27:16;;;;;;;38.25;31.55;;;6.60;97.20;;;;;;1721236;28;20209;-66
2023/03/03 07:28:20;;;;;;;37.55;31.25;;;6.60;97.20;;;;;;1721715;28;20603;-65
2023/03/03 07:29:20;;;;;;;40.78;31.85;;;6.60;97.20;;;;;;1721625;28;20205;-65
2023/03/03 07:30:25;;;;;;;41.80;33.17;;;6.60;97.20;;;;;;1721543;28;20688;-65
2023/03/03 07:31:26;;;;;;;39.92;34.17;;;6.60;97.20;;;;;;1721653;28;20206;-65
2023/03/03 07:32:27;;;;;;;47.25;33.45;;;6.60;97.20;;;;;;1721585;28;20225;-65
2023/03/03 07:33:24;;;;;;;38.30;31.15;;;6.60;97.20;;;;;;1721474;28;20205;-65
2023/03/03 07:34:21;;;;;;;40.42;33.22;;;6.70;97.20;;;;;;1718851;28;20220;-66
2023/03/03 07:35:36;;;;;;;39.33;32.03;;;6.70;97.20;;;;;;1721487;28;20209;-65
2023/03/03 07:36:30;;;;;;;39.35;31.73;;;6.70;97.20;;;;;;1721254;28;20579;-65
2023/03/03 07:37:27;;;;;;;37.83;32.63;;;6.70;97.20;;;;;;1721238;28;20198;-66
2023/03/03 07:38:24;;;;;;;39.42;33.33;;;6.70;97.20;;;;;;1720632;28;20205;-66
2023/03/03 07:39:28;;;;;;;38.95;32.60;;;6.70;97.20;;;;;;1721514;28;20209;-65
2023/03/03 07:40:34;;;;;;;38.47;32.25;;;6.70;97.20;;;;;;1721471;28;20284;-65
2023/03/03 07:41:26;;;;;;;38.72;31.80;;;6.70;97.20;;;;;;1721478;28;20271;-65
2023/03/03 07:42:22;;;;;;;38.33;31.40;;;6.80;97.20;;;;;;1721524;28;20264;-65
2023/03/03 07:43:33;;;;;;;39.42;31.33;;;6.70;97.20;;;;;;1721445;28;20209;-65
2023/03/03 07:44:32;;;;;;;36.97;32.95;;;6.80;97.20;;;;;;1719334;28;20208;-66
2023/03/03 07:45:26;;;;;;;40.45;31.67;;;6.80;97.20;;;;;;1721460;28;20208;-65
2023/03/03 07:46:28;;;;;;;37.08;30.70;;;6.80;97.20;;;;;;1721478;28;20205;-66
2023/03/03 07:47:21;;;;;;;36.67;32.10;;;6.80;97.20;;;;;;1721188;28;20725;-65
2023/03/03 07:48:23;;;;;;;39.25;32.22;;;6.90;97.20;;;;;;1721424;28;20609;-65
2023/03/03 07:49:22;;;;;;;38.45;32.05;;;6.90;97.20;;;;;;1721435;28;20216;-65
2023/03/03 07:50:16;;;;;;;37.33;31.52;;;6.90;97.20;;;;;;1721438;28;20208;-65
2023/03/03 07:51:12;;;;;;;40.55;32.35;;;6.90;97.20;;;;;;1721469;28;20209;-65
2023/03/03 07:52:23;;;;;;;37.17;31.23;;;7.00;97.20;;;;;;1721535;28;20201;-65
2023/03/03 07:53:24;;;;;;;41.55;33.20;;;7.00;97.20;;;;;;1721564;28;20634;-66
2023/03/03 07:54:28;;;;;;;38.08;31.67;;;7.00;97.20;;;;;;1721117;28;20198;-65
2023/03/03 07:55:28;;;;;;;41.42;32.92;;;7.10;97.20;;;;;;1721540;28;20232;-65
2023/03/03 07:56:28;;;;;;;42.08;34.28;;;7.10;97.20;;;;;;1714738;28;20233;-65
2023/03/03 07:57:23;;;;;;;40.72;32.30;;;7.20;97.20;;;;;;1714351;28;20210;-65
2023/03/03 07:58:21;;;;;;;44.50;33.55;;;7.20;97.20;;;;;;1714626;28;20213;-65
2023/03/03 07:59:21;;;;;;;37.60;30.60;;;7.30;97.20;;;;;;1714806;28;20609;-65
2023/03/03 08:00:46;;;;;;;39.13;31.95;;;7.40;97.20;;;;;;1714704;28;20206;-65
2023/03/03 08:01:39;;;;;;;40.70;31.88;;;7.50;97.20;;;;;;1714688;28;20592;-66
2023/03/03 08:02:39;;;;;;;36.80;30.80;;;7.60;97.20;;;;;;1714714;28;20198;-66
2023/03/03 08:03:33;;;;;;;39.25;31.98;;;7.70;97.20;;;;;;1715082;28;20290;-65
2023/03/03 08:04:32;;;;;;;41.25;30.67;;;7.80;97.20;;;;;;1714639;28;20201;-65
2023/03/03 08:05:32;;;;;;;36.65;30.60;;;7.90;97.20;;;;;;1714682;28;20690;-65
2023/03/03 08:06:42;;;;;;;36.45;30.10;;;8.00;97.20;;;;;;1714731;28;20711;-65
2023/03/03 08:07:36;;;;;;;37.75;30.10;;;8.10;97.20;;;;;;1714381;28;20688;-66
2023/03/03 08:08:29;;;;;;;39.55;30.10;;;8.30;97.20;;;;;;1714493;28;20260;-66
2023/03/03 08:09:43;;;;;;;38.40;30.80;;;8.30;97.20;;;;;;1714685;28;20197;-65
2023/03/03 08:10:37;;;;;;;37.28;30.13;;;8.40;97.20;;;;;;1714582;28;20233;-66
2023/03/03 08:11:29;;;;;;;39.40;30.38;;;8.50;97.20;;;;;;1714617;28;20202;-65
2023/03/03 08:12:41;;;;;;;36.08;29.98;;;8.50;97.20;;;;;;1714561;28;20205;-65
2023/03/03 08:13:37;;;;;;;37.72;29.38;;;8.60;97.20;;;;;;1715013;28;20229;-66
2023/03/03 08:14:33;;;;;;;37.60;30.33;;;8.60;97.20;;;;;;1714671;28;20293;-66
2023/03/03 08:15:29;;;;;;;38.17;30.23;;;8.70;97.20;;;;;;1714549;28;20206;-65
2023/03/03 08:16:29;;;;;;;38.78;30.23;;;8.70;97.20;;;;;;1721112;28;20189;-65
2023/03/03 08:17:22;;;;;;;42.85;30.85;;;8.80;97.20;;;;;;1720998;28;20217;-65
2023/03/03 08:18:25;;;;;;;40.40;31.00;;;8.80;97.20;;;;;;1721350;28;20270;-65
2023/03/03 08:19:16;;;;;;;41.35;31.75;;;8.80;97.20;;;;;;1721294;28;20213;-65
2023/03/03 08:20:41;;;;;;;35.97;28.33;;;8.80;97.20;;;;;;1721248;28;20206;-65
2023/03/03 08:21:35;;;;;;;39.25;29.85;;;8.90;97.20;;;;;;1721287;28;20212;-65
2023/03/03 08:22:30;;;;;;;37.53;30.75;;;8.90;97.20;;;;;;1721202;28;20675;-65
2023/03/03 08:23:22;;;;;;;37.20;29.48;;;8.90;97.20;;;;;;1721165;28;20213;-66
2023/03/03 08:24:13;;;;;;;37.33;30.13;;;8.90;97.20;;;;;;1720935;28;20194;-65
2023/03/03 08:25:05;;;;;;;35.10;28.70;;;9.00;97.20;;;;;;1721248;28;20201;-66
2023/03/03 08:25:57;;;;;;;36.80;28.88;;;9.00;97.20;;;;;;1721182;28;20212;-65
2023/03/03 08:26:48;;;;;;;39.75;31.10;;;9.10;97.20;;;;;;1721142;28;20212;-65
2023/03/03 08:27:39;;;;;;;38.07;30.60;;;9.20;97.20;;;;;;1720961;28;20232;-65
2023/03/03 08:28:31;;;;;;;38.50;29.95;;;9.30;97.20;;;;;;1721133;28;20667;-65
2023/03/03 08:29:22;;;;;;;34.72;30.40;;;9.30;97.20;;;;;;1721129;28;20201;-65
2023/03/03 08:30:14;;;;;;;33.43;27.40;;;9.40;97.20;;;;;;1721083;28;20201;-65
2023/03/03 08:31:06;;;;;;;34.40;28.60;;;9.40;97.20;;;;;;1721097;28;20209;-65
2023/03/03 08:31:56;;;;;;;35.45;28.20;;;9.50;97.20;;;;;;1721131;28;20216;-65
2023/03/03 08:32:48;;;;;;;39.20;30.50;;;9.50;97.20;;;;;;1721144;28;20211;-65
2023/03/03 08:33:40;;;;;;;33.80;28.73;;;9.60;97.20;;;;;;1720764;28;20233;-66
2023/03/03 08:34:30;;;;;;;32.13;27.42;;;9.60;97.20;;;;;;1721159;28;20555;-65
2023/03/03 08:35:23;;;;;;;33.93;28.87;;;9.70;97.20;;;;;;1721059;28;20227;-65
2023/03/03 08:36:14;;;;;;;34.00;27.80;;;9.80;97.20;;;;;;1721215;28;20625;-65
2023/03/03 08:37:06;;;;;;;34.13;28.27;;;9.90;97.20;;;;;;1720850;28;20201;-66
2023/03/03 08:37:57;;;;;;;35.65;28.98;;;10.00;97.20;;;;;;1721060;28;20782;-66
2023/03/03 08:38:48;;;;;;;32.90;29.30;;;10.00;97.20;;;;;;1721015;28;20818;-65
2023/03/03 08:39:39;;;;;;;34.17;28.65;;;10.10;97.20;;;;;;1721037;28;20224;-65
2023/03/03 08:40:31;;;;;;;32.47;27.97;;;10.20;97.20;;;;;;1720982;28;20225;-65
2023/03/03 08:41:22;;;;;;;34.35;29.00;;;10.30;97.20;;;;;;1721040;28;20943;-65
2023/03/03 08:42:14;;;;;;;36.67;29.10;;;10.30;97.20;;;;;;1721169;28;20655;-65
2023/03/03 08:43:05;;;;;;;37.33;30.90;;;10.30;97.20;;;;;;1720960;28;20209;-65
2023/03/03 08:43:56;;;;;;;37.13;29.50;;;10.40;97.20;;;;;;1720066;28;20698;-66
2023/03/03 08:44:47;;;;;;;35.08;28.40;;;10.40;97.20;;;;;;1721070;28;20958;-65
2023/03/03 08:45:39;;;;;;;35.50;29.80;;;10.50;97.20;;;;;;1720844;28;20597;-65
2023/03/03 08:46:29;;;;;;;34.35;28.52;;;10.60;97.20;;;;;;1721029;28;20216;-65
2023/03/03 08:47:21;;;;;;;37.13;29.70;;;10.80;97.20;;;;;;1720768;28;20208;-66
2023/03/03 08:48:12;;;;;;;34.10;27.83;;;10.90;97.20;;;;;;1720988;28;20262;-65
2023/03/03 08:49:04;;;;;;;34.23;27.80;;;11.00;97.20;;;;;;1720860;28;20205;-66
2023/03/03 08:49:54;;;;;;;33.40;28.00;;;11.10;97.20;;;;;;1721020;28;20201;-65
2023/03/03 08:50:47;;;;;;;33.87;27.57;;;11.30;97.20;;;;;;1720917;28;20217;-65
2023/03/03 08:51:39;;;;;;;31.08;26.60;;;11.40;97.20;;;;;;1721012;28;20205;-65
2023/03/03 08:52:30;;;;;;;33.33;27.25;;;11.60;97.20;;;;;;1721057;28;20233;-65
2023/03/03 08:53:22;;;;;;;34.78;27.40;;;11.70;97.20;;;;;;1720884;28;20236;-65
2023/03/03 08:54:14;;;;;;;32.00;27.52;;;11.90;97.20;;;;;;1720845;28;20207;-65
2023/03/03 08:55:05;;;;;;;34.25;27.55;;;12.00;97.20;;;;;;1720949;28;20201;-65
2023/03/03 08:55:57;;;;;;;32.72;27.17;;;12.20;97.20;;;;;;1721049;28;20741;-65
2023/03/03 08:56:47;;;;;;;34.78;27.38;;;12.30;97.20;;;;;;1720976;28;20300;-65
2023/03/03 08:57:39;;;;;;;32.50;26.90;;;12.40;97.20;;;;;;1720682;28;20248;-65
2023/03/03 08:58:30;;;;;;;32.90;27.23;;;12.60;97.20;;;;;;1720840;28;20239;-66
2023/03/03 08:59:22;;;;;;;31.80;27.37;;;12.70;97.20;;;;;;1720969;28;20219;-66
2023/03/03 09:00:15;;;;;;;33.22;27.77;;;12.90;97.20;;;;;;1720946;28;20208;-65
2023/03/03 09:01:07;;;;;;;36.35;29.17;;;13.00;97.20;;;;;;1721005;28;20240;-65
2023/03/03 09:01:58;;;;;;;30.55;27.25;;;13.10;97.20;;;;;;1720884;28;20224;-65
2023/03/03 09:02:51;;;;;;;36.47;27.57;;;13.20;97.20;;;;;;1721066;28;20201;-66
2023/03/03 09:03:42;;;;;;;32.28;26.50;;;13.30;97.20;;;;;;1720556;28;20256;-66
2023/03/03 09:04:34;;;;;;;35.40;28.67;;;13.30;97.20;;;;;;1720989;28;20197;-65
2023/03/03 09:05:25;;;;;;;33.75;28.05;;;13.40;97.20;;;;;;1720870;28;20444;-65
2023/03/03 09:06:18;;;;;;;33.45;28.48;;;13.50;97.20;;;;;;1720989;28;20209;-65
2023/03/03 09:07:09;;;;;;;33.70;27.98;;;13.60;97.20;;;;;;1720576;28;20223;-66
2023/03/03 09:08:01;;;;;;;37.00;28.17;;;13.60;97.20;;;;;;1720843;28;20225;-66
2023/03/03 09:08:53;;;;;;;31.20;26.98;;;13.60;97.20;;;;;;1720907;28;20229;-66
2023/03/03 09:09:45;;;;;;;34.70;30.00;;;13.70;97.20;;;;;;1720896;28;20208;-65
2023/03/03 09:10:35;;;;;;;30.70;27.25;;;13.70;97.20;;;;;;1720929;28;20583;-65
2023/03/03 09:11:29;;;;;;;32.97;26.93;;;13.80;97.20;;;;;;1720851;28;20724;-65
2023/03/03 09:12:26;;;;;;;32.22;27.52;;;13.80;97.20;;;;;;1720945;28;20217;-65
2023/03/03 09:13:20;;;;;;;34.42;29.35;;;14.00;97.20;;;;;;1720886;28;20207;-66
2023/03/03 09:14:13;;;;;;;33.10;29.10;;;14.10;97.20;;;;;;1720677;28;20201;-65
2023/03/03 09:15:18;;;;;;;33.25;29.38;;;14.10;97.20;;;;;;1720851;28;20259;-65
2023/03/03 09:16:13;;;;;;;35.33;27.73;;;14.20;97.20;;;;;;1720905;28;20213;-65
2023/03/03 09:17:23;;;;;;;39.15;28.52;;;14.30;97.20;;;;;;1720978;28;20669;-66
2023/03/03 09:18:18;;;;;;;31.30;27.40;;;14.40;97.20;;;;;;1720861;28;20208;-65
2023/03/03 09:19:21;;;;;;;32.88;28.73;;;14.50;97.20;;;;;;1720843;28;20232;-66
2023/03/03 09:20:37;;;;;;;33.53;28.75;;;14.50;97.20;;;;;;1720977;28;20630;-66
2023/03/03 09:21:31;;;;;;;35.17;28.45;;;14.60;97.20;;;;;;1706283;28;20203;-66
2023/03/03 09:22:25;;;;;;;35.30;28.60;;;14.60;97.20;;;;;;1720786;28;20201;-65
2023/03/03 09:23:29;;;;;;;32.97;27.65;;;14.60;97.20;;;;;;1720759;28;20232;-65
2023/03/03 09:24:28;;;;;;;35.45;28.33;;;14.60;97.20;;;;;;1720643;28;20733;-66
2023/03/03 09:25:23;;;;;;;33.63;28.67;;;14.60;97.20;;;;;;1720819;28;20205;-65
2023/03/03 09:26:26;;;;;;;31.63;27.92;;;14.50;97.20;;;;;;1720557;28;20225;-65
2023/03/03 09:27:22;;;;;;;32.05;28.58;;;14.50;97.20;;;;;;1720593;28;20231;-66
2023/03/03 09:28:23;;;;;;;33.75;28.77;;;14.50;97.20;;;;;;1720726;28;20255;-66
2023/03/03 09:29:23;;;;;;;33.38;29.80;;;14.50;97.20;;;;;;1720908;28;20194;-65
2023/03/03 09:30:33;;;;;;;33.65;29.08;;;14.40;97.20;;;;;;1720482;28;20197;-66
2023/03/03 09:31:27;;;;;;;34.78;30.08;;;14.40;97.20;;;;;;1720866;28;20827;-65
2023/03/03 09:32:30;;;;;;;31.83;27.55;;;14.40;97.20;;;;;;1720839;28;20205;-65
2023/03/03 09:33:25;;;;;;;37.45;28.38;;;14.50;97.20;;;;;;1720850;28;20201;-66
2023/03/03 09:34:21;;;;;;;31.45;28.05;;;14.50;97.20;;;;;;1720763;28;20233;-65
2023/03/03 09:35:36;;;;;;;33.20;28.52;;;14.50;97.20;;;;;;1720939;28;20748;-65
2023/03/03 09:36:34;;;;;;;36.35;28.17;;;14.60;97.20;;;;;;1720506;28;20193;-65
2023/03/03 09:37:31;;;;;;;36.25;29.33;;;14.60;97.20;;;;;;1720569;28;20341;-65
2023/03/03 09:38:27;;;;;;;32.92;28.98;;;14.70;97.20;;;;;;1720824;28;20251;-66
2023/03/03 09:39:21;;;;;;;32.40;28.63;;;14.80;97.20;;;;;;1720822;28;20194;-65
2023/03/03 09:40:35;;;;;;;34.08;27.58;;;14.90;97.20;;;;;;1720657;28;20204;-65
2023/03/03 09:41:57;;;;;;;33.85;28.95;;;14.90;97.20;;;;;;1720728;28;20208;-66
2023/03/03 09:42:59;;;;;;;33.70;29.00;;;15.00;97.20;;;;;;1720751;28;20239;-65
2023/03/03 09:44:01;;;;;;;33.45;28.08;;;15.00;97.20;;;;;;1720383;28;20205;-66
2023/03/03 09:45:20;;;;;;;31.08;27.77;;;15.00;97.20;;;;;;1720843;28;20209;-66
2023/03/03 09:46:18;;;;;;;32.55;27.08;;;15.00;97.20;;;;;;1720529;28;20690;-65
2023/03/03 09:47:26;;;;;;;32.78;29.27;;;15.00;97.20;;;;;;1720528;28;20255;-66
2023/03/03 09:48:39;;;;;;;37.15;28.58;;;15.00;97.20;;;;;;1720661;28;20622;-65
2023/03/03 09:49:33;;;;;;;35.90;29.83;;;15.10;97.20;;;;;;1720749;28;20205;-65
2023/03/03 09:50:34;;;;;;;34.00;29.15;;;15.20;97.20;;;;;;1720699;28;20702;-65
2023/03/03 09:51:40;;;;;;;32.78;28.25;;;15.30;97.20;;;;;;1720801;28;20205;-64
2023/03/03 09:52:40;;;;;;;35.25;28.88;;;15.50;97.20;;;;;;1720661;28;20206;-65
2023/03/03 09:53:49;;;;;;;35.35;27.75;;;15.70;97.20;;;;;;1720718;28;20293;-65
2023/03/03 09:55:01;;;;;;;31.73;28.05;;;16.00;97.20;;;;;;1720771;28;20659;-65
2023/03/03 09:55:57;;;;;;;30.95;27.65;;;16.20;97.20;;;;;;1720772;28;20212;-65
2023/03/03 09:56:55;;;;;;;34.03;29.15;;;16.40;97.20;;;;;;1720578;28;20197;-65
2023/03/03 09:58:14;;;;;;;31.92;26.35;;;16.50;97.20;;;;;;1720463;28;20216;-65
2023/03/03 09:59:25;;;;;;;37.45;29.88;;;16.70;97.20;;;;;;1720665;28;20229;-65
2023/03/03 10:00:29;;;;;;;35.45;28.90;;;16.80;97.20;;;;;;1720694;28;20217;-65
2023/03/03 10:01:56;;;;;;;35.15;29.35;;;16.90;97.20;;;;;;1720277;28;20205;-65
2023/03/03 10:03:02;;;;;;;32.05;28.55;;;17.20;96.80;;;;;;1720619;28;20213;-65
2023/03/03 10:04:25;;;;;;;33.05;29.50;;;17.50;96.90;;;;;;1720692;28;20201;-65
2023/03/03 10:05:26;;;;;;;31.52;28.00;;;17.70;96.40;;;;;;1720704;28;20209;-65
2023/03/03 10:06:24;;;;;;;33.10;28.30;;;17.90;95.60;;;;;;1720333;28;20213;-65
2023/03/03 10:07:27;;;;;;;31.10;26.98;;;17.90;95.30;;;;;;1713724;28;20289;-65
2023/03/03 10:08:35;;;;;;;31.80;27.80;;;18.00;95.40;;;;;;1716682;28;20225;-65
2023/03/03 10:09:46;;;;;;;31.38;27.80;;;18.20;95.30;;;;;;1713954;28;20579;-65
2023/03/03 10:10:49;;;;;;;34.42;28.52;;;18.40;95.10;;;;;;1716547;28;20244;-65
2023/03/03 10:11:48;;;;;;;37.33;28.55;;;18.60;94.30;;;;;;1720670;28;20244;-65
2023/03/03 10:12:48;;;;;;;32.08;28.33;;;18.90;93.70;;;;;;1720693;28;20800;-65
2023/03/03 10:13:51;;;;;;;33.30;26.88;;;19.20;93.90;;;;;;1720563;28;20217;-65
2023/03/03 10:15:07;;;;;;;33.45;29.30;;;19.50;93.40;;;;;;1720624;28;20283;-65
2023/03/03 10:16:31;;;;;;;33.53;28.25;;;19.70;92.40;;;;;;1720537;28;20205;-66
2023/03/03 10:17:29;;;;;;;31.77;26.30;;;19.90;91.60;;;;;;1720389;28;20659;-66
2023/03/03 10:18:32;;;;;;;32.25;28.38;;;20.20;91.60;;;;;;1720688;28;20729;-67
2023/03/03 10:19:36;;;;;;;32.65;28.17;;;20.50;91.20;;;;;;1720644;28;20551;-66
2023/03/03 10:20:44;;;;;;;34.30;27.90;;;20.80;90.60;;;;;;1720512;28;20264;-66
2023/03/03 10:21:39;;;;;;;31.92;28.58;;;20.90;89.70;;;;;;1720616;28;20205;-66
2023/03/03 10:22:41;;;;;;;31.75;28.17;;;21.00;89.50;;;;;;1720571;28;20205;-66
2023/03/03 10:23:54;;;;;;;35.03;29.67;;;21.00;89.40;;;;;;1720576;28;20659;-66
2023/03/03 10:24:55;;;;;;;31.25;27.40;;;20.90;89.20;;;;;;1720599;28;20243;-66
2023/03/03 10:25:57;;;;;;;31.00;27.70;;;20.70;88.90;;;;;;1720688;28;20605;-66
2023/03/03 10:27:03;;;;;;;31.05;27.23;;;20.70;89.70;;;;;;1720373;28;20575;-66
2023/03/03 10:28:09;;;;;;;32.33;28.92;;;20.70;89.60;;;;;;1720343;28;20205;-66
2023/03/03 10:29:20;;;;;;;31.45;28.08;;;20.50;89.50;;;;;;1720527;28;20256;-66
2023/03/03 10:30:20;;;;;;;30.83;27.25;;;20.40;89.10;;;;;;1720522;28;20202;-66
2023/03/03 10:31:22;;;;;;;31.25;27.85;;;21.00;88.80;;;;;;1720660;28;20714;-66
2023/03/03 10:32:28;;;;;;;32.08;28.58;;;21.60;88.60;;;;;;1720740;28;20240;-66
2023/03/03 10:33:26;;;;;;;29.75;26.38;;;21.80;87.70;;;;;;1720574;28;20284;-66
2023/03/03 10:34:36;;;;;;;31.10;27.80;;;21.90;87.00;;;;;;1720582;28;20205;-66
2023/03/03 10:35:49;;;;;;;35.10;28.42;;;23.00;86.90;;;;;;1720535;28;20281;-66
2023/03/03 10:36:52;;;;;;;28.38;25.38;;;23.80;85.30;;;;;;1720285;28;20714;-66
2023/03/03 10:37:55;;;;;;;31.48;27.80;;;24.20;84.50;;;;;;1720282;28;20604;-66
2023/03/03 10:38:55;;;;;;;33.05;29.38;;;24.30;83.10;;;;;;1720462;28;20243;-66
2023/03/03 10:40:05;;;;;;;31.00;27.30;;;24.00;83.00;;;;;;1720528;28;20205;-66
2023/03/03 10:41:07;;;;;;;35.85;27.48;;;23.60;82.80;;;;;;1720552;28;20225;-66
2023/03/03 10:42:10;;;;;;;31.15;27.90;;;23.20;83.10;;;;;;1720676;28;20203;-66
2023/03/03 10:43:24;;;;;;;31.90;28.40;;;22.70;83.60;;;;;;1720508;28;20216;-66
2023/03/03 10:44:37;;;;;;;29.92;26.83;;;22.20;83.80;;;;;;1720192;28;20213;-66
2023/03/03 10:45:49;;;;;;;30.52;27.27;;;21.90;84.40;;;;;;1720562;28;20212;-66
2023/03/03 10:46:50;;;;;;;28.90;26.10;;;23.00;84.50;;;;;;1719735;28;20189;-67
2023/03/03 10:48:15;;;;;;;32.83;26.65;;;23.20;83.60;;;;;;1720108;28;20197;-66
2023/03/03 10:49:33;;;;;;;29.80;26.77;;;23.40;82.80;;;;;;1713729;28;20221;-66
2023/03/03 10:50:32;;;;;;;27.15;24.48;;;25.20;81.70;;;;;;1713775;28;20210;-66
2023/03/03 10:51:33;;;;;;;29.85;26.58;;;27.10;80.10;;;;;;1713881;28;20570;-66
2023/03/03 10:52:35;;;;;;;30.02;26.90;;;28.80;78.30;;;;;;1713819;28;20210;-67
2023/03/03 10:55:41;;;;;;;28.73;25.73;;;31.10;73.70;;;;;;1713639;28;20205;-67
2023/03/03 10:56:48;;;;;;;29.30;26.15;;;30.90;71.60;;;;;;1712059;28;20660;-66
2023/03/03 10:57:46;;;;;;;31.38;26.38;;;30.60;71.70;;;;;;1720471;28;20559;-67